createdAt,value
2022-09-14T00:01:48.990Z,24.80
2022-09-14T00:04:23.358Z,24.80
2022-09-14T00:06:57.215Z,24.80
2022-09-14T00:09:31.213Z,24.80
2022-09-14T00:12:05.596Z,24.80
2022-09-14T00:14:40.681Z,24.80
2022-09-14T00:17:15.904Z,24.80
2022-09-14T00:19:49.925Z,24.80
2022-09-14T00:22:23.827Z,24.80
2022-09-14T00:24:57.421Z,24.80
2022-09-14T00:27:31.272Z,24.80
2022-09-14T00:30:05.906Z,24.80
2022-09-14T00:32:41.234Z,24.80
2022-09-14T00:35:15.146Z,24.80
2022-09-14T00:37:51.578Z,24.80
2022-09-14T00:40:25.824Z,24.80
2022-09-14T00:42:59.697Z,24.80
2022-09-14T00:45:33.446Z,24.80
2022-09-14T00:48:09.628Z,24.80
2022-09-14T00:50:43.992Z,24.80
2022-09-14T00:53:18.084Z,24.80
2022-09-14T00:55:54.172Z,24.80
2022-09-14T00:58:28.336Z,24.80
2022-09-14T01:01:02.608Z,24.80
2022-09-14T01:03:39.436Z,24.80
2022-09-14T01:06:20.096Z,24.80
2022-09-14T01:09:16.416Z,24.80
2022-09-14T01:12:06.275Z,24.80
2022-09-14T01:14:46.080Z,24.80
2022-09-14T01:17:26.951Z,24.80
2022-09-14T01:20:17.033Z,24.80
2022-09-14T01:22:54.657Z,24.80
2022-09-14T01:26:01.474Z,24.80
2022-09-14T01:28:42.601Z,24.80
2022-09-14T01:31:19.873Z,24.80
2022-09-14T01:33:58.949Z,24.80
2022-09-14T01:36:36.162Z,24.80
2022-09-14T01:39:11.237Z,24.80
2022-09-14T01:41:47.936Z,24.80
2022-09-14T01:44:26.850Z,24.80
2022-09-14T01:47:06.386Z,24.80
2022-09-14T01:49:44.186Z,24.80
2022-09-14T01:52:21.727Z,24.80
2022-09-14T01:54:59.688Z,24.80
2022-09-14T01:57:38.694Z,24.80
2022-09-14T02:00:18.071Z,24.80
2022-09-14T02:02:56.513Z,24.80
2022-09-14T02:05:35.558Z,24.80
2022-09-14T02:08:09.698Z,24.80
2022-09-14T02:10:43.653Z,24.80
2022-09-14T02:13:17.452Z,24.80
2022-09-14T02:15:52.502Z,24.80
2022-09-14T02:18:26.613Z,24.80
2022-09-14T02:21:04.270Z,24.80
2022-09-14T02:23:38.068Z,24.80
2022-09-14T02:26:12.349Z,24.80
2022-09-14T02:28:46.337Z,24.80
2022-09-14T02:31:28.297Z,24.80
2022-09-14T02:34:08.445Z,24.80
2022-09-14T02:36:50.236Z,24.80
2022-09-14T02:39:41.928Z,24.80
2022-09-14T02:42:26.762Z,24.80
2022-09-14T02:45:07.759Z,24.80
2022-09-14T02:47:55.518Z,24.80
2022-09-14T02:50:36.268Z,24.80
2022-09-14T02:53:15.907Z,24.80
2022-09-14T02:55:53.783Z,24.80
2022-09-14T02:58:35.872Z,24.80
2022-09-14T03:01:12.465Z,24.80
2022-09-14T03:03:47.812Z,24.80
2022-09-14T03:06:21.611Z,24.80
2022-09-14T03:08:55.122Z,24.80
2022-09-14T03:11:29.072Z,24.80
2022-09-14T03:14:02.888Z,24.80
2022-09-14T03:16:36.514Z,24.80
2022-09-14T03:19:12.510Z,24.80
2022-09-14T03:21:46.576Z,24.80
2022-09-14T03:24:20.353Z,24.80
2022-09-14T03:26:53.903Z,24.80
2022-09-14T03:29:27.703Z,24.80
2022-09-14T03:32:01.242Z,24.80
2022-09-14T03:34:36.447Z,24.80
2022-09-14T03:37:10.295Z,24.80
2022-09-14T03:39:44.341Z,24.80
2022-09-14T03:42:17.884Z,24.80
2022-09-14T03:44:51.674Z,24.70
2022-09-14T03:47:25.314Z,24.80
2022-09-14T03:50:00.511Z,24.70
2022-09-14T03:52:35.175Z,24.80
2022-09-14T03:55:10.954Z,24.70
2022-09-14T03:57:44.705Z,24.70
2022-09-14T04:00:18.943Z,24.80
2022-09-14T04:02:53.062Z,24.70
2022-09-14T04:05:28.320Z,24.80
2022-09-14T04:08:02.121Z,24.80
2022-09-14T04:10:35.673Z,24.80
2022-09-14T04:13:09.451Z,24.70
2022-09-14T04:15:43.433Z,24.70
2022-09-14T04:18:17.270Z,24.80
2022-09-14T04:20:56.939Z,24.80
2022-09-14T04:23:31.084Z,24.70
2022-09-14T04:26:11.994Z,24.70
2022-09-14T04:28:46.609Z,24.80
2022-09-14T04:31:20.536Z,24.70
2022-09-14T04:33:57.324Z,24.80
2022-09-14T04:36:32.886Z,24.80
2022-09-14T04:39:07.004Z,24.80
2022-09-14T04:41:40.989Z,24.80
2022-09-14T04:44:14.535Z,24.80
2022-09-14T04:46:48.455Z,24.70
2022-09-14T04:49:22.339Z,24.80
2022-09-14T04:51:57.257Z,24.80
2022-09-14T04:54:31.070Z,24.70
2022-09-14T04:57:04.685Z,24.80
2022-09-14T04:59:38.481Z,24.70
2022-09-14T05:02:12.050Z,24.70
2022-09-14T05:04:45.945Z,24.70
2022-09-14T05:07:20.875Z,24.70
2022-09-14T05:09:54.674Z,24.70
2022-09-14T05:12:28.170Z,24.70
2022-09-14T05:15:01.988Z,24.70
2022-09-14T05:17:35.541Z,24.70
2022-09-14T05:20:10.445Z,24.70
2022-09-14T05:22:45.694Z,24.70
2022-09-14T05:25:19.748Z,24.70
2022-09-14T05:27:53.544Z,24.70
2022-09-14T05:30:27.056Z,24.80
2022-09-14T05:33:00.840Z,24.70
2022-09-14T05:35:34.374Z,24.70
2022-09-14T05:38:09.607Z,24.70
2022-09-14T05:40:43.527Z,24.70
2022-09-14T05:43:17.509Z,24.70
2022-09-14T05:45:51.042Z,24.80
2022-09-14T05:48:24.871Z,24.70
2022-09-14T05:50:59.598Z,24.80
2022-09-14T05:53:35.218Z,24.70
2022-09-14T05:56:11.333Z,24.70
2022-09-14T05:58:45.178Z,24.70
2022-09-14T06:01:19.655Z,24.80
2022-09-14T06:03:54.678Z,24.70
2022-09-14T06:06:28.918Z,24.80
2022-09-14T06:09:05.773Z,24.80
2022-09-14T06:11:39.911Z,24.70
2022-09-14T06:14:13.891Z,24.70
2022-09-14T06:16:47.567Z,24.70
2022-09-14T06:19:21.467Z,24.70
2022-09-14T06:21:55.441Z,24.70
2022-09-14T06:24:30.993Z,24.70
2022-09-14T06:27:04.986Z,24.70
2022-09-14T06:29:38.899Z,24.70
2022-09-14T06:32:12.436Z,24.70
2022-09-14T06:34:46.324Z,24.70
2022-09-14T06:37:20.212Z,24.70
2022-09-14T06:39:56.051Z,24.70
2022-09-14T06:42:31.597Z,24.70
2022-09-14T06:45:06.826Z,24.70
2022-09-14T06:47:40.738Z,24.70
2022-09-14T06:50:14.694Z,24.70
2022-09-14T06:52:48.207Z,24.70
2022-09-14T06:55:23.415Z,24.70
2022-09-14T06:57:57.190Z,24.70
2022-09-14T07:00:30.693Z,24.70
2022-09-14T07:03:04.751Z,24.70
2022-09-14T07:05:38.581Z,24.70
2022-09-14T07:08:12.510Z,24.70
2022-09-14T07:10:57.485Z,24.70
2022-09-14T07:13:32.123Z,24.70
2022-09-14T07:16:06.800Z,24.70
2022-09-14T07:18:41.082Z,24.70
2022-09-14T07:21:17.038Z,24.70
2022-09-14T07:23:51.485Z,24.70
2022-09-14T07:26:28.144Z,24.70
2022-09-14T07:29:04.504Z,24.70
2022-09-14T07:31:41.872Z,24.70
2022-09-14T07:34:17.053Z,24.70
2022-09-14T07:36:50.891Z,24.70
2022-09-14T07:39:24.430Z,24.70
2022-09-14T07:42:00.002Z,24.70
2022-09-14T07:44:33.815Z,24.70
2022-09-14T07:47:07.432Z,24.70
2022-09-14T07:49:41.280Z,24.70
2022-09-14T07:52:15.197Z,24.70
2022-09-14T07:54:49.085Z,24.70
2022-09-14T07:57:45.455Z,24.70
2022-09-14T08:00:17.833Z,24.70
2022-09-14T08:02:54.980Z,24.70
2022-09-14T08:05:29.110Z,24.70
2022-09-14T08:08:03.247Z,24.80
2022-09-14T08:10:37.740Z,24.70
2022-09-14T08:13:13.444Z,24.80
2022-09-14T08:15:47.416Z,24.80
2022-09-14T08:18:21.258Z,24.80
2022-09-14T08:20:54.854Z,24.80
2022-09-14T08:23:28.628Z,24.80
2022-09-14T08:26:05.465Z,24.80
2022-09-14T08:28:41.211Z,24.80
2022-09-14T08:31:17.176Z,24.80
2022-09-14T08:33:52.936Z,24.80
2022-09-14T08:36:28.818Z,24.90
2022-09-14T08:39:03.097Z,24.90
2022-09-14T08:41:42.355Z,24.90
2022-09-14T08:44:22.552Z,24.90
2022-09-14T08:47:03.009Z,25.00
2022-09-14T08:49:48.438Z,25.00
2022-09-14T08:52:27.159Z,24.90
2022-09-14T08:55:02.780Z,25.00
2022-09-14T08:57:45.035Z,25.00
2022-09-14T09:00:24.650Z,25.00
2022-09-14T09:03:29.970Z,25.00
2022-09-14T09:06:15.652Z,25.00
2022-09-14T09:08:59.535Z,25.00
2022-09-14T09:11:39.358Z,25.00
2022-09-14T09:14:19.959Z,25.00
2022-09-14T09:16:58.509Z,25.00
2022-09-14T09:19:36.037Z,25.10
2022-09-14T09:22:16.380Z,25.10
2022-09-14T09:24:54.023Z,25.00
2022-09-14T09:27:29.104Z,25.10
2022-09-14T09:30:03.422Z,25.10
2022-09-14T09:32:40.665Z,25.10
2022-09-14T09:35:26.662Z,25.10
2022-09-14T09:38:15.377Z,25.10
2022-09-14T09:40:53.883Z,25.10
2022-09-14T09:43:48.457Z,25.10
2022-09-14T09:46:22.108Z,25.10
2022-09-14T09:48:58.582Z,25.20
2022-09-14T09:51:34.666Z,25.10
2022-09-14T09:54:20.533Z,25.10
2022-09-14T09:56:58.213Z,25.10
2022-09-14T09:59:35.962Z,25.10
2022-09-14T10:02:23.867Z,25.10
2022-09-14T10:05:01.774Z,25.10
2022-09-14T10:07:38.025Z,25.10
2022-09-14T10:10:14.319Z,25.10
2022-09-14T10:12:50.549Z,25.00
2022-09-14T10:15:27.099Z,25.10
2022-09-14T10:18:10.188Z,25.10
2022-09-14T10:20:48.225Z,25.10
2022-09-14T10:23:25.951Z,25.00
2022-09-14T10:26:24.113Z,25.10
2022-09-14T10:29:31.055Z,25.00
2022-09-14T10:32:16.024Z,25.10
2022-09-14T10:34:51.326Z,25.10
2022-09-14T10:37:33.953Z,25.10
2022-09-14T10:40:20.264Z,25.10
2022-09-14T10:43:09.221Z,25.10
2022-09-14T10:45:48.526Z,25.10
2022-09-14T10:48:51.947Z,25.00
2022-09-14T10:51:36.910Z,25.10
2022-09-14T10:54:24.212Z,25.10
2022-09-14T10:57:07.596Z,25.10
2022-09-14T10:59:50.007Z,25.10
2022-09-14T11:02:52.223Z,25.10
2022-09-14T11:05:30.382Z,25.20
2022-09-14T11:08:16.576Z,25.20
2022-09-14T11:11:09.366Z,25.20
2022-09-14T11:13:59.624Z,25.20
2022-09-14T11:16:50.779Z,25.20
2022-09-14T11:19:36.785Z,25.20
2022-09-14T11:22:20.415Z,25.30
2022-09-14T11:24:59.335Z,25.30
2022-09-14T11:27:41.289Z,25.40
2022-09-14T11:30:19.285Z,25.40
2022-09-14T11:32:57.515Z,25.40
2022-09-14T11:35:36.276Z,25.40
2022-09-14T11:38:16.052Z,25.40
2022-09-14T11:40:56.492Z,25.50
2022-09-14T11:43:38.405Z,25.50
2022-09-14T11:46:16.047Z,25.50
2022-09-14T11:48:55.328Z,25.40
2022-09-14T11:51:34.143Z,25.40
2022-09-14T11:54:16.798Z,25.50
2022-09-14T11:56:52.616Z,25.50
2022-09-14T11:59:50.613Z,25.50
2022-09-14T12:03:03.028Z,25.50
2022-09-14T12:05:37.976Z,25.50
2022-09-14T12:08:29.245Z,25.50
2022-09-14T12:11:25.879Z,25.50
2022-09-14T12:14:29.732Z,25.50
2022-09-14T12:20:49.311Z,25.50
2022-09-14T12:23:29.059Z,25.50
2022-09-14T12:26:26.595Z,25.40
2022-09-14T12:29:36.488Z,25.40
2022-09-14T12:32:43.556Z,25.50
2022-09-14T12:35:46.806Z,25.40
2022-09-14T12:39:06.843Z,25.40
2022-09-14T12:42:32.414Z,25.40
2022-09-14T12:45:49.022Z,25.40
2022-09-14T12:48:59.133Z,25.40
2022-09-14T12:51:45.980Z,25.40
2022-09-14T12:54:27.374Z,25.40
2022-09-14T12:57:15.274Z,25.40
2022-09-14T12:59:55.825Z,25.40
2022-09-14T13:03:14.873Z,25.40
2022-09-14T13:05:51.163Z,25.40
2022-09-14T13:08:26.012Z,25.40
2022-09-14T13:10:59.992Z,25.40
2022-09-14T13:13:34.767Z,25.30
2022-09-14T13:16:09.305Z,25.40
2022-09-14T13:18:43.281Z,25.40
2022-09-14T13:21:24.116Z,25.30
2022-09-14T13:23:58.184Z,25.30
2022-09-14T13:26:33.470Z,25.30
2022-09-14T13:29:09.907Z,25.30
2022-09-14T13:31:46.721Z,25.30
2022-09-14T13:34:24.469Z,25.30
2022-09-14T13:37:00.007Z,25.30
2022-09-14T13:39:36.177Z,25.30
2022-09-14T13:42:11.478Z,25.30
2022-09-14T13:44:47.067Z,25.30
2022-09-14T13:47:23.614Z,25.30
2022-09-14T13:49:58.534Z,25.30
2022-09-14T13:55:44.968Z,25.40
2022-09-14T13:58:24.255Z,25.40
2022-09-14T14:01:00.482Z,25.40
2022-09-14T14:03:38.309Z,25.40
2022-09-14T14:06:27.301Z,25.40
2022-09-14T14:09:04.994Z,25.40
2022-09-14T14:11:41.306Z,25.40
2022-09-14T14:14:26.466Z,25.40
2022-09-14T14:17:23.592Z,25.40
2022-09-14T14:19:59.215Z,25.40
2022-09-14T14:22:35.934Z,25.40
2022-09-14T14:25:29.373Z,25.40
2022-09-14T14:28:04.759Z,25.40
2022-09-14T14:30:41.935Z,25.40
2022-09-14T14:33:18.753Z,25.50
2022-09-14T14:35:54.658Z,25.40
2022-09-14T14:38:28.510Z,25.40
2022-09-14T14:41:03.870Z,25.50
2022-09-14T14:43:37.823Z,25.50
2022-09-14T14:46:11.860Z,25.50
2022-09-14T14:48:45.860Z,25.50
2022-09-14T14:51:19.895Z,25.50
2022-09-14T14:53:53.808Z,25.50
2022-09-14T14:56:29.824Z,25.50
2022-09-14T14:59:03.809Z,25.50
2022-09-14T15:01:37.777Z,25.50
2022-09-14T15:04:11.720Z,25.50
2022-09-14T15:06:47.520Z,25.50
2022-09-14T15:09:23.654Z,25.50
2022-09-14T15:11:59.019Z,25.50
2022-09-14T15:14:32.905Z,25.50
2022-09-14T15:17:06.631Z,25.50
2022-09-14T15:19:40.469Z,25.50
2022-09-14T15:22:14.373Z,25.50
2022-09-14T15:24:48.153Z,25.50
2022-09-14T15:27:23.128Z,25.50
2022-09-14T15:29:57.484Z,25.50
2022-09-14T15:32:31.394Z,25.50
2022-09-14T15:35:05.068Z,25.50
2022-09-14T15:37:38.907Z,25.40
2022-09-14T15:40:13.131Z,25.40
2022-09-14T15:42:48.481Z,25.50
2022-09-14T15:45:22.379Z,25.50
2022-09-14T15:47:56.508Z,25.50
2022-09-14T15:50:30.396Z,25.40
2022-09-14T15:53:03.991Z,25.40
2022-09-14T15:55:41.024Z,25.40
2022-09-14T15:58:16.458Z,25.40
2022-09-14T16:00:50.944Z,25.40
2022-09-14T16:03:25.129Z,25.40
2022-09-14T16:06:01.740Z,25.40
2022-09-14T16:08:37.414Z,25.40
2022-09-14T16:11:11.785Z,25.40
2022-09-14T16:13:47.304Z,25.30
2022-09-14T16:16:22.467Z,25.30
2022-09-14T16:18:57.689Z,25.40
2022-09-14T16:21:32.015Z,25.30
2022-09-14T16:24:08.681Z,25.30
2022-09-14T16:26:43.737Z,25.30
2022-09-14T16:29:20.997Z,25.30
2022-09-14T16:31:55.669Z,25.30
2022-09-14T16:34:31.481Z,25.30
2022-09-14T16:37:05.496Z,25.30
2022-09-14T16:39:39.445Z,25.30
2022-09-14T16:42:13.674Z,25.30
2022-09-14T16:44:49.342Z,25.30
2022-09-14T16:47:25.841Z,25.30
2022-09-14T16:49:59.938Z,25.30
2022-09-14T16:52:34.258Z,25.20
2022-09-14T16:55:09.378Z,25.30
2022-09-14T16:57:43.531Z,25.30
2022-09-14T17:00:19.180Z,25.20
2022-09-14T17:02:54.258Z,25.30
2022-09-14T17:05:29.059Z,25.30
2022-09-14T17:08:04.173Z,25.20
2022-09-14T17:10:39.160Z,25.30
2022-09-14T17:13:13.814Z,25.30
2022-09-14T17:15:50.110Z,25.30
2022-09-14T17:18:24.987Z,25.30
2022-09-14T17:21:01.930Z,25.30
2022-09-14T17:23:36.360Z,25.30
2022-09-14T17:26:14.458Z,25.30
2022-09-14T17:29:43.564Z,25.30
2022-09-14T17:32:37.822Z,25.30
2022-09-14T17:35:12.344Z,25.30
2022-09-14T17:37:48.053Z,25.30
2022-09-14T17:40:22.854Z,25.40
2022-09-14T17:42:57.946Z,25.30
2022-09-14T17:45:33.769Z,25.40
2022-09-14T17:48:11.334Z,25.30
2022-09-14T17:50:46.639Z,25.30
2022-09-14T17:53:22.494Z,25.40
2022-09-14T17:56:05.137Z,25.40
2022-09-14T17:58:40.955Z,25.30
2022-09-14T18:01:18.942Z,25.40
2022-09-14T18:03:58.110Z,25.30
2022-09-14T18:06:35.413Z,25.40
2022-09-14T18:09:14.330Z,25.40
2022-09-14T18:11:51.275Z,25.30
2022-09-14T18:14:27.196Z,25.30
2022-09-14T18:17:02.591Z,25.30
2022-09-14T18:19:40.009Z,25.30
2022-09-14T18:22:17.562Z,25.30
2022-09-14T18:24:52.921Z,25.30
2022-09-14T18:27:28.158Z,25.30
2022-09-14T18:30:03.731Z,25.30
2022-09-14T18:32:39.038Z,25.30
2022-09-14T18:35:17.075Z,25.30
2022-09-14T18:37:52.670Z,25.30
2022-09-14T18:40:27.551Z,25.30
2022-09-14T18:43:02.902Z,25.30
2022-09-14T18:45:38.102Z,25.30
2022-09-14T18:48:13.928Z,25.40
2022-09-14T18:50:50.968Z,25.30
2022-09-14T18:53:26.174Z,25.40
2022-09-14T18:56:03.834Z,25.50
2022-09-14T18:58:40.561Z,25.50
2022-09-14T19:01:16.608Z,25.50
2022-09-14T19:03:51.820Z,25.60
2022-09-14T19:06:28.429Z,25.60
2022-09-14T19:09:03.215Z,25.70
2022-09-14T19:11:38.157Z,25.70
2022-09-14T19:14:15.972Z,25.70
2022-09-14T19:16:52.181Z,25.70
2022-09-14T19:19:27.117Z,25.80
2022-09-14T19:22:03.393Z,25.80
2022-09-14T19:24:38.036Z,25.80
2022-09-14T19:27:12.239Z,25.80
2022-09-14T19:29:46.330Z,25.80
2022-09-14T19:32:20.651Z,25.90
2022-09-14T19:34:54.714Z,25.90
2022-09-14T19:37:31.382Z,25.90
2022-09-14T19:40:05.967Z,25.90
2022-09-14T19:42:39.891Z,25.90
2022-09-14T19:45:16.613Z,25.90
2022-09-14T19:47:50.462Z,26.00
2022-09-14T19:50:24.491Z,26.00
2022-09-14T19:53:03.897Z,26.00
2022-09-14T19:55:38.535Z,26.00
2022-09-14T19:58:12.378Z,26.00
2022-09-14T20:00:45.956Z,25.90
2022-09-14T20:03:19.856Z,25.90
2022-09-14T20:06:01.157Z,25.90
2022-09-14T20:08:37.524Z,25.90
2022-09-14T20:11:15.631Z,25.80
2022-09-14T20:13:55.500Z,25.80
2022-09-14T20:16:31.251Z,25.80
2022-09-14T20:19:07.654Z,25.80
2022-09-14T20:21:43.432Z,25.80
2022-09-14T20:24:21.029Z,25.80
2022-09-14T20:26:59.153Z,25.80
2022-09-14T20:29:35.738Z,25.70
2022-09-14T20:32:09.967Z,25.70
2022-09-14T20:34:46.301Z,25.70
2022-09-14T20:37:22.784Z,25.70
2022-09-14T20:39:59.212Z,25.70
2022-09-14T20:42:34.945Z,25.60
2022-09-14T20:45:13.402Z,25.60
2022-09-14T20:47:47.753Z,25.70
2022-09-14T20:50:21.740Z,25.60
2022-09-14T20:52:55.712Z,25.60
2022-09-14T20:55:34.160Z,25.60
2022-09-14T20:58:08.054Z,25.60
2022-09-14T21:00:42.577Z,25.60
2022-09-14T21:03:16.523Z,25.60
2022-09-14T21:05:54.275Z,25.60
2022-09-14T21:08:28.266Z,25.60
2022-09-14T21:11:07.337Z,25.50
2022-09-14T21:13:41.573Z,25.60
2022-09-14T21:16:17.358Z,25.60
2022-09-14T21:18:56.350Z,25.50
2022-09-14T21:21:30.948Z,25.50
2022-09-14T21:24:07.219Z,25.50
2022-09-14T21:26:44.257Z,25.50
2022-09-14T21:29:20.984Z,25.50
2022-09-14T21:31:55.168Z,25.50
2022-09-14T21:34:29.200Z,25.50
2022-09-14T21:37:03.390Z,25.50
2022-09-14T21:39:38.211Z,25.50
2022-09-14T21:42:13.472Z,25.50
2022-09-14T21:44:47.357Z,25.50
2022-09-14T21:47:21.891Z,25.50
2022-09-14T21:49:55.948Z,25.50
2022-09-14T21:52:30.054Z,25.50
2022-09-14T21:55:04.019Z,25.40
2022-09-14T21:57:39.542Z,25.50
2022-09-14T22:00:14.217Z,25.40
2022-09-14T22:02:48.177Z,25.40
2022-09-14T22:05:22.033Z,25.40
2022-09-14T22:07:55.893Z,25.40
2022-09-14T22:10:29.773Z,25.40
2022-09-14T22:13:05.053Z,25.30
2022-09-14T22:15:38.940Z,25.30
2022-09-14T22:18:12.913Z,25.30
2022-09-14T22:20:46.786Z,25.30
2022-09-14T22:23:20.355Z,25.30
2022-09-14T22:25:54.580Z,25.30
2022-09-14T22:28:30.374Z,25.30
2022-09-14T22:31:04.353Z,25.30
2022-09-14T22:33:38.432Z,25.30
2022-09-14T22:36:13.268Z,25.30
2022-09-14T22:38:47.781Z,25.30
2022-09-14T22:41:22.796Z,25.20
2022-09-14T22:43:58.386Z,25.30
2022-09-14T22:46:32.283Z,25.30
2022-09-14T22:49:06.184Z,25.30
2022-09-14T22:51:40.270Z,25.30
2022-09-14T22:54:14.411Z,25.20
2022-09-14T22:56:48.296Z,25.30
2022-09-14T22:59:23.249Z,25.20
2022-09-14T23:01:57.134Z,25.30
2022-09-14T23:04:31.308Z,25.20
2022-09-14T23:07:06.876Z,25.20
2022-09-14T23:09:41.073Z,25.20
2022-09-14T23:12:14.893Z,25.20
2022-09-14T23:14:49.807Z,25.20
2022-09-14T23:17:24.064Z,25.20
2022-09-14T23:19:57.900Z,25.20
2022-09-14T23:22:31.414Z,25.20
2022-09-14T23:25:05.984Z,25.20
2022-09-14T23:27:39.813Z,25.20
2022-09-14T23:30:15.905Z,25.20
2022-09-14T23:32:49.752Z,25.20
2022-09-14T23:35:23.263Z,25.20
2022-09-14T23:37:57.601Z,25.20
2022-09-14T23:40:31.495Z,25.20
2022-09-14T23:43:05.361Z,25.20
2022-09-14T23:45:40.340Z,25.20
2022-09-14T23:48:14.553Z,25.20
2022-09-14T23:50:57.045Z,25.20
2022-09-14T23:53:31.656Z,25.20
2022-09-14T23:56:06.561Z,25.20
2022-09-14T23:58:41.553Z,25.20
